createdAt,value
2023-05-12T00:00:36.309Z,97376.63
2023-05-12T00:03:04.545Z,97383.78
2023-05-12T00:05:32.088Z,97392.22
2023-05-12T00:07:59.336Z,97391.47
2023-05-12T00:10:28.713Z,97388.81
2023-05-12T00:12:56.276Z,97383.56
2023-05-12T00:15:23.710Z,97388.59
2023-05-12T00:17:52.526Z,97392.00
2023-05-12T00:20:20.214Z,97396.25
2023-05-12T00:22:47.577Z,97392.31
2023-05-12T00:25:15.041Z,97390.72
2023-05-12T00:27:42.252Z,97392.31
2023-05-12T00:30:10.624Z,97387.56
2023-05-12T00:32:38.147Z,97389.94
2023-05-12T00:35:05.883Z,97391.28
2023-05-12T00:37:33.126Z,97389.44
2023-05-12T00:40:01.156Z,97388.91
2023-05-12T00:42:28.465Z,97384.19
2023-05-12T00:44:55.696Z,97385.22
2023-05-12T00:47:23.204Z,97381.78
2023-05-12T00:49:51.089Z,97393.91
2023-05-12T00:52:18.400Z,97392.34
2023-05-12T00:54:47.030Z,97394.16
2023-05-12T00:57:14.744Z,97392.06
2023-05-12T00:59:42.173Z,97395.19
2023-05-12T01:02:09.548Z,97397.28
2023-05-12T01:04:38.786Z,97400.72
2023-05-12T01:07:18.370Z,97396.78
2023-05-12T01:09:46.716Z,97399.66
2023-05-12T01:12:14.161Z,97396.50
2023-05-12T01:14:42.353Z,97406.25
2023-05-12T01:17:15.849Z,97403.03
2023-05-12T01:19:58.982Z,97392.19
2023-05-12T01:22:31.281Z,97399.03
2023-05-12T01:25:07.851Z,97392.19
2023-05-12T01:27:39.545Z,97391.88
2023-05-12T01:30:09.189Z,97385.84
2023-05-12T01:32:38.433Z,97396.41
2023-05-12T01:35:07.222Z,97383.97
2023-05-12T01:37:36.266Z,97391.13
2023-05-12T01:40:06.204Z,97394.34
2023-05-12T01:42:33.507Z,97395.94
2023-05-12T01:45:00.939Z,97392.22
2023-05-12T01:47:28.939Z,97399.34
2023-05-12T01:50:03.918Z,97402.44
2023-05-12T01:52:31.254Z,97403.41
2023-05-12T01:54:58.388Z,97401.03
2023-05-12T01:57:27.121Z,97392.63
2023-05-12T01:59:57.683Z,97394.06
2023-05-12T02:02:25.160Z,97391.94
2023-05-12T02:04:52.701Z,97395.00
2023-05-12T02:07:20.001Z,97389.91
2023-05-12T02:09:47.281Z,97387.72
2023-05-12T02:12:14.627Z,97393.06
2023-05-12T02:14:41.846Z,97397.59
2023-05-12T02:17:09.177Z,97402.34
2023-05-12T02:19:36.493Z,97398.38
2023-05-12T02:22:03.812Z,97392.25
2023-05-12T02:24:31.086Z,97394.03
2023-05-12T02:26:58.467Z,97392.94
2023-05-12T02:29:26.118Z,97394.28
2023-05-12T02:31:53.793Z,97402.88
2023-05-12T02:34:21.079Z,97404.78
2023-05-12T02:36:48.368Z,97398.59
2023-05-12T02:39:15.714Z,97407.81
2023-05-12T02:41:42.883Z,97408.50
2023-05-12T02:44:11.012Z,97407.13
2023-05-12T02:46:38.808Z,97401.25
2023-05-12T02:49:06.140Z,97407.00
2023-05-12T02:51:33.295Z,97403.28
2023-05-12T02:54:00.634Z,97405.63
2023-05-12T02:56:28.843Z,97407.25
2023-05-12T02:58:56.135Z,97399.78
2023-05-12T03:01:23.462Z,97407.16
2023-05-12T03:03:51.011Z,97397.19
2023-05-12T03:06:18.486Z,97402.88
2023-05-12T03:08:46.587Z,97388.63
2023-05-12T03:11:13.947Z,97395.03
2023-05-12T03:13:41.215Z,97396.31
2023-05-12T03:16:08.458Z,97402.19
2023-05-12T03:18:35.890Z,97398.78
2023-05-12T03:21:03.701Z,97395.31
2023-05-12T03:23:31.546Z,97401.78
2023-05-12T03:25:58.805Z,97395.56
2023-05-12T03:28:27.230Z,97400.72
2023-05-12T03:30:54.646Z,97401.81
2023-05-12T03:33:22.011Z,97401.03
2023-05-12T03:35:50.436Z,97400.53
2023-05-12T03:38:18.112Z,97402.16
2023-05-12T03:40:52.773Z,97406.44
2023-05-12T03:43:21.321Z,97412.22
2023-05-12T03:45:49.207Z,97409.66
2023-05-12T03:48:16.610Z,97411.84
2023-05-12T03:50:43.868Z,97407.59
2023-05-12T03:53:11.225Z,97411.88
2023-05-12T03:55:38.749Z,97411.66
2023-05-12T03:58:06.189Z,97419.00
2023-05-12T04:00:33.608Z,97406.84
2023-05-12T04:03:01.203Z,97419.78
2023-05-12T04:05:28.560Z,97431.88
2023-05-12T04:07:55.820Z,97432.38
2023-05-12T04:10:23.055Z,97425.38
2023-05-12T04:12:50.569Z,97425.78
2023-05-12T04:15:18.325Z,97436.69
2023-05-12T04:17:45.667Z,97435.13
2023-05-12T04:20:13.082Z,97433.31
2023-05-12T04:22:40.532Z,97432.69
2023-05-12T04:25:08.683Z,97437.94
2023-05-12T04:27:35.922Z,97443.22
2023-05-12T04:30:03.175Z,97438.81
2023-05-12T04:32:34.843Z,97439.19
2023-05-12T04:35:02.178Z,97444.69
2023-05-12T04:37:29.794Z,97442.28
2023-05-12T04:39:57.070Z,97435.34
2023-05-12T04:42:24.481Z,97444.25
2023-05-12T04:44:52.268Z,97444.13
2023-05-12T04:47:19.643Z,97449.47
2023-05-12T04:49:47.039Z,97454.72
2023-05-12T04:52:15.175Z,97447.53
2023-05-12T04:54:42.581Z,97448.91
2023-05-12T04:57:10.063Z,97453.38
2023-05-12T04:59:39.255Z,97450.84
2023-05-12T05:02:11.884Z,97460.25
2023-05-12T05:04:39.412Z,97460.81
2023-05-12T05:07:06.838Z,97457.63
2023-05-12T05:09:36.302Z,97458.31
2023-05-12T05:12:04.218Z,97463.75
2023-05-12T05:14:31.489Z,97455.69
2023-05-12T05:17:00.211Z,97462.22
2023-05-12T05:19:39.078Z,97462.19
2023-05-12T05:22:15.139Z,97462.50
2023-05-12T05:24:42.493Z,97459.81
2023-05-12T05:27:09.861Z,97459.81
2023-05-12T05:29:37.165Z,97462.22
2023-05-12T05:32:05.021Z,97458.31
2023-05-12T05:34:32.366Z,97458.41
2023-05-12T05:37:00.386Z,97461.78
2023-05-12T05:39:30.850Z,97458.00
2023-05-12T05:41:58.334Z,97461.03
2023-05-12T05:44:26.146Z,97465.34
2023-05-12T05:46:54.107Z,97465.03
2023-05-12T05:49:22.154Z,97466.94
2023-05-12T05:51:49.532Z,97476.06
2023-05-12T05:54:16.899Z,97473.00
2023-05-12T05:56:44.492Z,97478.75
2023-05-12T05:59:11.716Z,97478.56
2023-05-12T06:01:39.060Z,97479.78
2023-05-12T06:04:06.477Z,97478.13
2023-05-12T06:06:33.788Z,97486.03
2023-05-12T06:09:01.229Z,97487.78
2023-05-12T06:11:28.604Z,97483.88
2023-05-12T06:13:55.883Z,97486.72
2023-05-12T06:16:23.179Z,97488.94
2023-05-12T06:18:50.958Z,97488.25
2023-05-12T06:21:18.426Z,97487.06
2023-05-12T06:23:46.716Z,97490.06
2023-05-12T06:26:14.292Z,97487.53
2023-05-12T06:28:41.537Z,97493.75
2023-05-12T06:31:09.068Z,97501.06
2023-05-12T06:33:36.290Z,97492.09
2023-05-12T06:36:03.806Z,97497.25
2023-05-12T06:38:32.774Z,97500.00
2023-05-12T06:41:00.149Z,97492.91
2023-05-12T06:43:27.886Z,97502.75
2023-05-12T06:45:56.969Z,97503.41
2023-05-12T06:48:24.534Z,97503.06
2023-05-12T06:50:51.948Z,97494.91
2023-05-12T06:53:19.222Z,97491.66
2023-05-12T06:55:47.139Z,97492.19
2023-05-12T06:58:14.506Z,97485.59
2023-05-12T07:00:41.756Z,97494.47
2023-05-12T07:03:10.524Z,97483.66
2023-05-12T07:05:38.083Z,97492.50
2023-05-12T07:08:05.838Z,97487.28
2023-05-12T07:10:33.382Z,97490.88
2023-05-12T07:13:01.000Z,97498.31
2023-05-12T07:15:28.853Z,97494.97
2023-05-12T07:17:57.661Z,97490.31
2023-05-12T07:20:25.129Z,97491.88
2023-05-12T07:22:54.757Z,97493.41
2023-05-12T07:25:22.621Z,97486.84
2023-05-12T07:27:50.630Z,97493.22
2023-05-12T07:30:18.000Z,97488.31
2023-05-12T07:32:45.379Z,97500.19
2023-05-12T07:35:13.195Z,97494.09
2023-05-12T07:37:41.526Z,97497.19
2023-05-12T07:40:09.266Z,97503.41
2023-05-12T07:42:36.548Z,97490.25
2023-05-12T07:45:04.275Z,97494.91
2023-05-12T07:47:31.599Z,97489.00
2023-05-12T07:49:58.924Z,97491.69
2023-05-12T07:52:26.159Z,97488.34
2023-05-12T07:54:53.565Z,97493.56
2023-05-12T07:57:20.915Z,97487.47
2023-05-12T07:59:48.268Z,97484.88
2023-05-12T08:02:17.506Z,97488.91
2023-05-12T08:04:44.740Z,97482.00
2023-05-12T08:07:12.088Z,97488.81
2023-05-12T08:09:39.409Z,97491.69
2023-05-12T08:12:06.869Z,97496.06
2023-05-12T08:14:34.180Z,97494.66
2023-05-12T08:17:01.423Z,97499.16
2023-05-12T08:19:28.741Z,97489.72
2023-05-12T08:21:56.239Z,97501.06
2023-05-12T08:24:23.522Z,97496.84
2023-05-12T08:26:50.841Z,97496.53
2023-05-12T08:29:18.151Z,97502.53
2023-05-12T08:31:45.530Z,97507.19
2023-05-12T08:34:13.035Z,97498.88
2023-05-12T08:36:40.760Z,97496.94
2023-05-12T08:39:10.325Z,97491.47
2023-05-12T08:41:51.976Z,97491.78
2023-05-12T08:44:21.030Z,97478.84
2023-05-12T08:46:48.808Z,97479.38
2023-05-12T08:49:21.066Z,97486.56
2023-05-12T08:51:56.884Z,97477.72
2023-05-12T08:54:28.917Z,97487.59
2023-05-12T08:59:27.317Z,97479.03
2023-05-12T09:01:56.517Z,97470.69
2023-05-12T09:04:23.774Z,97479.06
2023-05-12T09:06:54.345Z,97474.53
2023-05-12T09:09:25.635Z,97488.84
2023-05-12T09:11:58.201Z,97481.28
2023-05-12T09:14:26.510Z,97481.50
2023-05-12T09:17:02.957Z,97474.84
2023-05-12T09:19:30.604Z,97476.50
2023-05-12T09:21:59.349Z,97478.44
2023-05-12T09:24:38.719Z,97475.88
2023-05-12T09:27:07.252Z,97484.03
2023-05-12T09:29:42.470Z,97481.56
2023-05-12T09:32:29.665Z,97480.84
2023-05-12T09:34:57.185Z,97476.66
2023-05-12T09:37:35.043Z,97474.84
2023-05-12T09:40:08.209Z,97482.03
2023-05-12T09:42:36.698Z,97484.03
2023-05-12T09:45:11.484Z,97479.56
2023-05-12T09:47:40.885Z,97475.91
2023-05-12T09:50:10.304Z,97484.53
2023-05-12T09:52:41.104Z,97480.41
2023-05-12T09:55:10.458Z,97487.84
2023-05-12T09:57:42.961Z,97484.41
2023-05-12T10:00:31.211Z,97486.22
2023-05-12T10:03:04.575Z,97487.03
2023-05-12T10:05:32.744Z,97490.94
2023-05-12T10:08:03.726Z,97493.84
2023-05-12T10:10:30.984Z,97485.19
2023-05-12T10:12:59.823Z,97484.97
2023-05-12T10:15:27.481Z,97480.31
2023-05-12T10:17:55.624Z,97489.84
2023-05-12T10:20:24.473Z,97486.88
2023-05-12T10:22:54.570Z,97485.38
2023-05-12T10:25:23.460Z,97484.28
2023-05-12T10:27:53.166Z,97487.19
2023-05-12T10:30:20.891Z,97482.66
2023-05-12T10:32:48.294Z,97476.53
2023-05-12T10:35:16.644Z,97480.78
2023-05-12T10:37:44.751Z,97480.53
2023-05-12T10:40:22.944Z,97479.44
2023-05-12T10:42:52.268Z,97478.47
2023-05-12T10:45:22.057Z,97481.13
2023-05-12T10:47:49.584Z,97480.28
2023-05-12T10:50:27.868Z,97471.84
2023-05-12T10:52:56.068Z,97474.25
2023-05-12T10:55:46.563Z,97468.78
2023-05-12T10:58:14.710Z,97479.25
2023-05-12T11:00:51.954Z,97468.06
2023-05-12T11:03:25.743Z,97473.13
2023-05-12T11:06:02.762Z,97475.41
2023-05-12T11:08:32.611Z,97477.63
2023-05-12T11:11:00.069Z,97477.44
2023-05-12T11:13:29.152Z,97478.00
2023-05-12T11:15:58.374Z,97480.13
2023-05-12T11:18:25.820Z,97481.72
2023-05-12T11:20:53.216Z,97477.00
2023-05-12T11:23:29.750Z,97477.16
2023-05-12T11:25:57.287Z,97480.97
2023-05-12T11:28:24.791Z,97473.06
2023-05-12T11:30:55.804Z,97471.03
2023-05-12T11:33:23.587Z,97470.78
2023-05-12T11:35:51.587Z,97460.31
2023-05-12T11:38:19.993Z,97465.25
2023-05-12T11:40:47.860Z,97454.25
2023-05-12T11:43:19.660Z,97458.88
2023-05-12T11:45:46.934Z,97459.44
2023-05-12T11:48:15.138Z,97461.91
2023-05-12T11:50:47.660Z,97457.19
2023-05-12T11:53:18.789Z,97461.16
2023-05-12T11:55:57.004Z,97460.72
2023-05-12T11:58:30.034Z,97464.13
2023-05-12T12:01:09.036Z,97463.47
2023-05-12T12:03:49.632Z,97460.94
2023-05-12T12:06:17.797Z,97470.22
2023-05-12T12:09:00.208Z,97466.78
2023-05-12T12:11:28.446Z,97460.63
2023-05-12T12:13:57.003Z,97465.66
2023-05-12T12:16:25.911Z,97466.25
2023-05-12T12:18:54.163Z,97470.56
2023-05-12T12:21:23.026Z,97467.28
2023-05-12T12:23:51.949Z,97467.81
2023-05-12T12:26:21.131Z,97475.28
2023-05-12T12:28:49.101Z,97472.00
2023-05-12T12:31:17.297Z,97466.38
2023-05-12T12:33:44.601Z,97477.50
2023-05-12T12:36:11.857Z,97470.22
2023-05-12T12:38:39.132Z,97476.13
2023-05-12T12:41:07.904Z,97464.81
2023-05-12T12:43:35.109Z,97461.75
2023-05-12T12:46:02.507Z,97460.00
2023-05-12T12:48:29.787Z,97461.16
2023-05-12T12:50:57.253Z,97467.53
2023-05-12T12:53:24.795Z,97467.31
2023-05-12T12:55:52.192Z,97472.47
2023-05-12T12:58:19.785Z,97471.34
2023-05-12T13:00:47.241Z,97474.69
2023-05-12T13:03:14.642Z,97480.53
2023-05-12T13:05:42.219Z,97479.16
2023-05-12T13:08:09.479Z,97471.31
2023-05-12T13:10:37.550Z,97482.84
2023-05-12T13:13:04.883Z,97480.41
2023-05-12T13:15:32.450Z,97478.94
2023-05-12T13:17:59.715Z,97479.41
2023-05-12T13:20:27.122Z,97477.50
2023-05-12T13:22:54.430Z,97469.22
2023-05-12T13:25:21.989Z,97475.34
2023-05-12T13:27:49.453Z,97468.31
2023-05-12T13:30:16.636Z,97471.88
2023-05-12T13:32:44.058Z,97465.81
2023-05-12T13:35:11.319Z,97460.81
2023-05-12T13:37:38.578Z,97467.06
2023-05-12T13:40:06.895Z,97470.19
2023-05-12T13:42:34.388Z,97461.81
2023-05-12T13:45:01.720Z,97463.31
2023-05-12T13:47:28.965Z,97459.69
2023-05-12T13:49:57.349Z,97456.53
2023-05-12T13:52:24.573Z,97454.88
2023-05-12T13:54:52.135Z,97457.19
2023-05-12T13:57:20.803Z,97459.56
2023-05-12T13:59:48.043Z,97454.84
2023-05-12T14:02:15.310Z,97454.81
2023-05-12T14:04:42.538Z,97451.47
2023-05-12T14:07:09.718Z,97449.28
2023-05-12T14:09:37.025Z,97458.88
2023-05-12T14:12:04.550Z,97453.88
2023-05-12T14:14:31.879Z,97449.25
2023-05-12T14:16:59.130Z,97450.28
2023-05-12T14:19:26.369Z,97450.88
2023-05-12T14:21:53.744Z,97448.38
2023-05-12T14:24:20.899Z,97445.63
2023-05-12T14:26:48.303Z,97452.88
2023-05-12T14:29:15.720Z,97447.25
2023-05-12T14:31:42.981Z,97449.44
2023-05-12T14:34:11.852Z,97452.34
2023-05-12T14:36:39.137Z,97450.69
2023-05-12T14:39:08.790Z,97452.97
2023-05-12T14:41:36.107Z,97457.09
2023-05-12T14:44:03.394Z,97451.53
2023-05-12T14:46:30.845Z,97452.81
2023-05-12T14:48:58.291Z,97461.84
2023-05-12T14:51:25.530Z,97447.59
2023-05-12T14:53:52.841Z,97451.66
2023-05-12T14:56:20.443Z,97458.09
2023-05-12T14:58:47.597Z,97458.88
2023-05-12T15:01:15.201Z,97448.53
2023-05-12T15:03:42.658Z,97461.84
2023-05-12T15:06:09.883Z,97460.75
2023-05-12T15:08:37.213Z,97452.16
2023-05-12T15:11:04.993Z,97455.44
2023-05-12T15:13:32.309Z,97452.38
2023-05-12T15:15:59.641Z,97443.41
2023-05-12T15:18:27.178Z,97444.22
2023-05-12T15:20:54.408Z,97450.22
2023-05-12T15:23:22.144Z,97452.66
2023-05-12T15:25:49.534Z,97459.66
2023-05-12T15:28:17.392Z,97457.72
2023-05-12T15:30:45.516Z,97454.09
2023-05-12T15:33:12.984Z,97451.97
2023-05-12T15:35:40.768Z,97464.31
2023-05-12T15:38:08.409Z,97459.66
2023-05-12T15:40:37.266Z,97457.22
2023-05-12T15:43:05.073Z,97458.97
2023-05-12T15:45:32.357Z,97462.00
2023-05-12T15:47:59.613Z,97470.97
2023-05-12T15:50:27.063Z,97467.84
2023-05-12T15:52:54.335Z,97474.38
2023-05-12T15:55:22.269Z,97462.53
2023-05-12T15:57:50.384Z,97464.47
2023-05-12T16:00:18.378Z,97461.63
2023-05-12T16:02:45.817Z,97467.31
2023-05-12T16:05:13.175Z,97461.00
2023-05-12T16:07:40.580Z,97468.88
2023-05-12T16:10:09.161Z,97476.28
2023-05-12T16:12:36.514Z,97465.28
2023-05-12T16:15:05.157Z,97468.13
2023-05-12T16:17:32.556Z,97469.25
2023-05-12T16:20:00.345Z,97462.97
2023-05-12T16:22:27.735Z,97468.78
2023-05-12T16:24:56.561Z,97469.09
2023-05-12T16:27:23.972Z,97482.13
2023-05-12T16:29:53.519Z,97476.34
2023-05-12T16:32:21.104Z,97476.19
2023-05-12T16:34:48.476Z,97483.44
2023-05-12T16:37:15.995Z,97484.53
2023-05-12T16:39:43.280Z,97485.00
2023-05-12T16:42:10.636Z,97491.78
2023-05-12T16:44:37.903Z,97490.19
2023-05-12T16:47:05.797Z,97491.94
2023-05-12T16:49:33.173Z,97493.50
2023-05-12T16:52:00.512Z,97493.66
2023-05-12T16:54:27.902Z,97495.34
2023-05-12T16:56:56.635Z,97494.75
2023-05-12T16:59:23.994Z,97499.75
2023-05-12T17:01:51.431Z,97497.88
2023-05-12T17:04:18.747Z,97497.22
2023-05-12T17:06:45.977Z,97499.84
2023-05-12T17:09:13.376Z,97497.03
2023-05-12T17:11:40.594Z,97500.94
2023-05-12T17:14:08.066Z,97494.50
2023-05-12T17:16:35.760Z,97496.69
2023-05-12T17:21:33.844Z,97497.31
2023-05-12T17:24:01.052Z,97502.34
2023-05-12T17:26:29.379Z,97507.94
2023-05-12T17:28:56.769Z,97504.78
2023-05-12T17:31:24.026Z,97508.53
2023-05-12T17:33:51.254Z,97506.31
2023-05-12T17:36:22.167Z,97510.09
2023-05-12T17:38:51.607Z,97516.03
2023-05-12T17:41:19.427Z,97519.50
2023-05-12T17:43:46.849Z,97516.53
2023-05-12T17:46:14.354Z,97529.88
2023-05-12T17:48:41.770Z,97527.97
2023-05-12T17:51:09.104Z,97524.53
2023-05-12T17:53:36.388Z,97531.97
2023-05-12T17:56:04.002Z,97524.09
2023-05-12T17:58:31.217Z,97533.69
2023-05-12T18:00:58.640Z,97535.25
2023-05-12T18:03:26.178Z,97528.97
2023-05-12T18:05:54.604Z,97529.16
2023-05-12T18:08:21.943Z,97534.06
2023-05-12T18:10:49.210Z,97541.69
2023-05-12T18:13:16.471Z,97547.34
2023-05-12T18:15:43.851Z,97563.41
2023-05-12T18:18:11.609Z,97568.88
2023-05-12T18:20:39.044Z,97578.44
2023-05-12T18:23:06.400Z,97582.06
2023-05-12T18:25:33.978Z,97580.72
2023-05-12T18:28:01.631Z,97584.38
2023-05-12T18:30:29.120Z,97582.09
2023-05-12T18:32:56.566Z,97585.22
2023-05-12T18:35:24.875Z,97584.44
2023-05-12T18:37:52.210Z,97589.09
2023-05-12T18:40:19.846Z,97595.56
2023-05-12T18:42:47.169Z,97607.03
2023-05-12T18:45:14.621Z,97617.50
2023-05-12T18:47:42.242Z,97625.47
2023-05-12T18:50:10.210Z,97621.16
2023-05-12T18:52:37.918Z,97627.63
2023-05-12T18:55:06.018Z,97636.34
2023-05-12T18:57:33.443Z,97642.38
2023-05-12T19:00:00.859Z,97634.41
2023-05-12T19:02:28.237Z,97633.47
2023-05-12T19:04:55.855Z,97641.00
2023-05-12T19:07:23.585Z,97636.59
2023-05-12T19:09:50.911Z,97642.06
2023-05-12T19:12:18.200Z,97640.75
2023-05-12T19:14:45.547Z,97640.13
2023-05-12T19:17:12.931Z,97644.22
2023-05-12T19:19:40.246Z,97650.19
2023-05-12T19:22:07.732Z,97652.00
2023-05-12T19:24:35.088Z,97652.59
2023-05-12T19:27:02.316Z,97650.97
2023-05-12T19:29:29.676Z,97654.09
2023-05-12T19:31:57.126Z,97658.81
2023-05-12T19:34:24.588Z,97656.94
2023-05-12T19:36:53.066Z,97659.03
2023-05-12T19:39:20.372Z,97665.69
2023-05-12T19:41:47.748Z,97672.38
2023-05-12T19:44:15.146Z,97679.78
2023-05-12T19:46:43.683Z,97682.38
2023-05-12T19:49:10.860Z,97677.47
2023-05-12T19:51:38.060Z,97690.91
2023-05-12T19:54:06.627Z,97689.16
2023-05-12T19:56:34.364Z,97686.50
2023-05-12T19:59:01.828Z,97680.84
2023-05-12T20:01:29.276Z,97695.09
2023-05-12T20:03:57.039Z,97685.59
2023-05-12T20:06:25.178Z,97679.50
2023-05-12T20:08:52.715Z,97688.38
2023-05-12T20:11:20.012Z,97688.88
2023-05-12T20:13:47.297Z,97686.91
2023-05-12T20:16:14.790Z,97693.25
2023-05-12T20:18:42.158Z,97692.22
2023-05-12T20:21:09.841Z,97689.31
2023-05-12T20:23:37.049Z,97685.78
2023-05-12T20:26:04.968Z,97694.22
2023-05-12T20:28:32.306Z,97693.75
2023-05-12T20:30:59.523Z,97697.44
2023-05-12T20:33:26.773Z,97684.41
2023-05-12T20:35:54.028Z,97690.00
2023-05-12T20:38:21.386Z,97685.94
2023-05-12T20:40:48.621Z,97689.59
2023-05-12T20:43:15.828Z,97690.41
2023-05-12T20:45:43.053Z,97682.81
2023-05-12T20:48:10.710Z,97691.03
2023-05-12T20:50:37.975Z,97690.03
2023-05-12T20:53:05.469Z,97698.19
2023-05-12T20:55:35.659Z,97699.31
2023-05-12T20:58:02.916Z,97707.59
2023-05-12T21:00:30.233Z,97711.97
2023-05-12T21:02:58.152Z,97716.19
2023-05-12T21:05:25.842Z,97715.91
2023-05-12T21:07:53.117Z,97724.16
2023-05-12T21:10:21.331Z,97722.72
2023-05-12T21:12:49.078Z,97724.97
2023-05-12T21:15:16.532Z,97724.19
2023-05-12T21:17:43.752Z,97718.00
2023-05-12T21:20:12.311Z,97716.50
2023-05-12T21:22:40.817Z,97724.22
2023-05-12T21:25:08.833Z,97723.72
2023-05-12T21:27:40.676Z,97718.94
2023-05-12T21:30:10.228Z,97724.22
2023-05-12T21:32:37.845Z,97726.09
2023-05-12T21:35:06.710Z,97726.38
2023-05-12T21:37:34.448Z,97731.94
2023-05-12T21:40:01.920Z,97726.72
2023-05-12T21:42:29.158Z,97730.13
2023-05-12T21:44:56.487Z,97730.13
2023-05-12T21:47:23.706Z,97727.97
2023-05-12T21:49:55.666Z,97735.94
2023-05-12T21:52:23.515Z,97731.75
2023-05-12T21:54:50.776Z,97737.88
2023-05-12T21:57:18.093Z,97737.63
2023-05-12T21:59:45.604Z,97741.88
2023-05-12T22:02:13.331Z,97730.97
2023-05-12T22:04:40.693Z,97735.75
2023-05-12T22:07:07.942Z,97731.47
2023-05-12T22:09:35.412Z,97736.22
2023-05-12T22:12:02.652Z,97737.59
2023-05-12T22:14:29.822Z,97736.56
2023-05-12T22:16:57.065Z,97732.84
2023-05-12T22:19:24.345Z,97732.81
2023-05-12T22:21:52.055Z,97733.00
2023-05-12T22:24:19.197Z,97739.25
2023-05-12T22:26:46.562Z,97743.25
2023-05-12T22:29:13.882Z,97741.09
2023-05-12T22:31:42.591Z,97734.09
2023-05-12T22:34:10.356Z,97741.53
2023-05-12T22:36:37.897Z,97735.44
2023-05-12T22:39:05.121Z,97742.31
2023-05-12T22:41:32.254Z,97746.22
2023-05-12T22:43:59.574Z,97743.56
2023-05-12T22:46:26.877Z,97739.19
2023-05-12T22:48:54.302Z,97731.19
2023-05-12T22:51:21.503Z,97743.31
2023-05-12T22:53:48.845Z,97730.13
2023-05-12T22:56:16.281Z,97735.59
2023-05-12T22:58:43.481Z,97728.25
2023-05-12T23:01:10.805Z,97734.94
2023-05-12T23:03:38.304Z,97728.81
2023-05-12T23:06:06.176Z,97733.53
2023-05-12T23:08:33.575Z,97733.53
2023-05-12T23:11:00.786Z,97729.03
2023-05-12T23:13:29.151Z,97731.16
2023-05-12T23:15:56.555Z,97729.28
2023-05-12T23:18:23.844Z,97720.53
2023-05-12T23:20:51.076Z,97732.88
2023-05-12T23:23:18.393Z,97729.47
2023-05-12T23:25:47.452Z,97727.41
2023-05-12T23:28:14.656Z,97730.03
2023-05-12T23:30:41.880Z,97731.59
2023-05-12T23:33:09.242Z,97733.94
2023-05-12T23:35:36.488Z,97727.56
2023-05-12T23:38:03.788Z,97734.75
2023-05-12T23:40:33.446Z,97737.97
2023-05-12T23:43:00.744Z,97735.94
2023-05-12T23:45:28.238Z,97733.00
2023-05-12T23:47:55.663Z,97730.09
2023-05-12T23:50:23.438Z,97728.75
2023-05-12T23:52:55.704Z,97733.31
2023-05-12T23:55:23.587Z,97721.72
2023-05-12T23:57:51.038Z,97728.88
